createdAt,value
2022-12-26T00:04:56.894Z,8.91
2022-12-26T00:10:00.228Z,8.92
2022-12-26T00:15:02.267Z,9.01
2022-12-26T00:20:05.282Z,9.00
2022-12-26T00:25:09.098Z,9.04
2022-12-26T00:30:11.793Z,9.13
2022-12-26T00:35:13.726Z,9.08
2022-12-26T00:40:17.453Z,9.17
2022-12-26T00:45:19.479Z,9.14
2022-12-26T00:50:21.433Z,9.17
2022-12-26T00:55:24.709Z,9.18
2022-12-26T01:00:26.545Z,9.15
2022-12-26T01:05:28.716Z,9.14
2022-12-26T01:10:32.022Z,9.23
2022-12-26T01:15:33.995Z,9.21
2022-12-26T01:20:37.968Z,9.25
2022-12-26T01:26:18.651Z,9.31
2022-12-26T01:31:03.782Z,9.31
2022-12-26T01:36:06.250Z,9.33
2022-12-26T01:41:22.020Z,9.33
2022-12-26T01:46:29.551Z,9.42
2022-12-26T01:51:36.587Z,9.46
2022-12-26T01:56:43.396Z,9.44
2022-12-26T02:01:50.644Z,9.39
2022-12-26T02:06:52.972Z,9.42
2022-12-26T02:12:35.720Z,9.38
2022-12-26T02:17:23.852Z,9.39
2022-12-26T02:22:58.397Z,9.38
2022-12-26T02:28:25.527Z,9.46
2022-12-26T02:33:42.975Z,9.49
2022-12-26T02:38:59.629Z,9.45
2022-12-26T02:44:31.166Z,9.42
2022-12-26T02:50:05.320Z,9.40
2022-12-26T02:55:31.046Z,9.30
2022-12-26T03:00:55.335Z,9.28
2022-12-26T03:06:21.854Z,9.26
2022-12-26T03:11:46.686Z,9.17
2022-12-26T03:17:11.651Z,9.15
2022-12-26T03:22:30.472Z,9.10
2022-12-26T03:27:33.910Z,9.03
2022-12-26T03:32:42.630Z,9.01
2022-12-26T03:37:52.745Z,9.03
2022-12-26T03:43:21.869Z,8.94
2022-12-26T03:48:50.138Z,8.93
2022-12-26T03:54:16.430Z,8.93
2022-12-26T03:59:41.900Z,9.01
2022-12-26T04:05:04.622Z,9.05
2022-12-26T04:10:30.376Z,9.10
2022-12-26T04:16:00.312Z,9.16
2022-12-26T04:21:31.492Z,9.18
2022-12-26T04:26:57.954Z,9.12
2022-12-26T04:32:25.790Z,9.05
2022-12-26T04:37:48.827Z,9.00
2022-12-26T04:43:49.867Z,8.99
2022-12-26T04:48:53.392Z,8.95
2022-12-26T04:53:55.392Z,8.88
2022-12-26T04:58:59.520Z,8.89
2022-12-26T05:04:19.944Z,8.84
2022-12-26T05:09:34.172Z,8.95
2022-12-26T05:14:37.618Z,9.01
2022-12-26T05:19:58.017Z,8.99
2022-12-26T05:25:32.464Z,9.06
2022-12-26T05:30:35.921Z,8.96
2022-12-26T05:35:38.295Z,8.78
2022-12-26T05:40:40.092Z,8.75
2022-12-26T05:45:43.407Z,8.74
2022-12-26T05:50:45.371Z,8.49
2022-12-26T05:55:47.287Z,8.76
2022-12-26T06:00:50.573Z,8.71
2022-12-26T06:05:52.401Z,8.72
2022-12-26T06:10:54.431Z,8.85
2022-12-26T06:15:58.614Z,8.95
2022-12-26T06:21:04.265Z,8.82
2022-12-26T06:26:09.016Z,8.86
2022-12-26T06:31:15.920Z,8.93
2022-12-26T06:36:21.739Z,8.78
2022-12-26T06:41:25.044Z,8.67
2022-12-26T06:46:28.472Z,8.69
2022-12-26T06:51:30.498Z,8.80
2022-12-26T06:56:33.278Z,9.00
2022-12-26T07:01:36.931Z,9.12
2022-12-26T07:06:39.411Z,9.18
2022-12-26T07:11:43.782Z,9.41
2022-12-26T07:16:47.449Z,9.66
2022-12-26T07:21:49.469Z,9.83
2022-12-26T07:26:51.573Z,9.94
2022-12-26T07:31:54.943Z,9.94
2022-12-26T07:36:57.042Z,10.03
2022-12-26T07:41:59.409Z,10.05
2022-12-26T07:47:02.851Z,10.12
2022-12-26T07:52:05.313Z,9.96
2022-12-26T07:57:46.335Z,10.07
2022-12-26T08:02:30.892Z,10.02
2022-12-26T08:07:33.203Z,10.08
2022-12-26T08:12:35.459Z,10.02
2022-12-26T08:17:38.807Z,10.09
2022-12-26T08:22:40.852Z,10.23
2022-12-26T08:27:43.126Z,10.47
2022-12-26T08:32:46.670Z,10.53
2022-12-26T08:37:48.735Z,10.54
2022-12-26T08:43:12.190Z,10.45
2022-12-26T08:48:15.295Z,10.49
2022-12-26T08:53:17.262Z,10.85
2022-12-26T08:58:19.303Z,10.91
2022-12-26T09:03:22.807Z,10.89
2022-12-26T09:08:24.959Z,11.03
2022-12-26T09:13:26.938Z,11.14
2022-12-26T09:18:31.687Z,11.05
2022-12-26T09:23:35.085Z,11.14
2022-12-26T09:28:37.842Z,11.13
2022-12-26T09:33:41.832Z,10.97
2022-12-26T09:38:44.692Z,11.06
2022-12-26T09:43:57.586Z,10.97
2022-12-26T09:49:04.551Z,10.93
2022-12-26T09:54:11.713Z,11.00
2022-12-26T09:59:15.862Z,10.90
2022-12-26T10:04:28.963Z,10.79
2022-12-26T10:09:45.446Z,10.65
2022-12-26T10:14:51.722Z,10.61
2022-12-26T10:20:13.638Z,10.47
2022-12-26T10:25:18.117Z,10.54
2022-12-26T10:30:23.501Z,10.30
2022-12-26T10:35:32.139Z,10.39
2022-12-26T10:40:39.153Z,10.81
2022-12-26T10:45:50.516Z,10.99
2022-12-26T10:50:54.128Z,11.22
2022-12-26T10:55:57.142Z,11.43
2022-12-26T11:01:30.449Z,11.60
2022-12-26T11:06:38.507Z,11.59
2022-12-26T11:11:46.621Z,11.70
2022-12-26T11:16:49.416Z,11.43
2022-12-26T11:21:52.746Z,11.44
2022-12-26T11:27:18.640Z,11.43
2022-12-26T11:32:20.862Z,11.39
2022-12-26T11:37:29.811Z,11.36
2022-12-26T11:42:32.153Z,11.40
2022-12-26T11:47:34.179Z,11.29
2022-12-26T11:52:51.719Z,11.14
2022-12-26T11:57:58.899Z,11.29
2022-12-26T12:03:01.357Z,11.33
2022-12-26T12:08:21.367Z,11.40
2022-12-26T12:13:44.799Z,11.53
2022-12-26T12:18:57.296Z,11.63
2022-12-26T12:24:20.275Z,11.71
2022-12-26T12:29:42.655Z,11.80
2022-12-26T12:35:06.623Z,11.65
2022-12-26T12:40:26.916Z,11.58
2022-12-26T12:45:32.836Z,11.63
2022-12-26T12:50:41.498Z,11.43
2022-12-26T12:56:04.755Z,11.54
2022-12-26T13:01:11.065Z,11.56
2022-12-26T13:06:17.777Z,11.15
2022-12-26T13:11:26.531Z,11.11
2022-12-26T13:16:32.546Z,10.87
2022-12-26T13:21:37.488Z,10.72
2022-12-26T13:26:43.800Z,10.64
2022-12-26T13:31:46.608Z,10.64
2022-12-26T13:36:50.219Z,10.76
2022-12-26T13:42:14.883Z,10.81
2022-12-26T13:47:34.877Z,10.75
2022-12-26T13:52:40.073Z,10.77
2022-12-26T13:57:45.047Z,10.77
2022-12-26T14:08:33.266Z,10.67
2022-12-26T14:14:01.375Z,10.70
2022-12-26T14:19:12.397Z,10.71
2022-12-26T14:24:31.004Z,10.70
2022-12-26T14:29:45.911Z,10.58
2022-12-26T14:34:59.273Z,10.72
2022-12-26T14:40:17.955Z,10.86
2022-12-26T14:45:42.432Z,10.78
2022-12-26T14:50:46.843Z,10.70
2022-12-26T14:55:50.986Z,10.82
2022-12-26T15:00:55.880Z,10.69
2022-12-26T15:06:30.430Z,10.60
2022-12-26T15:11:50.739Z,10.46
2022-12-26T15:17:06.738Z,10.33
2022-12-26T15:22:37.206Z,10.25
2022-12-26T15:28:25.044Z,10.08
2022-12-26T15:33:38.835Z,10.00
2022-12-26T15:38:49.240Z,9.96
2022-12-26T15:44:03.876Z,9.96
2022-12-26T15:49:24.424Z,9.91
2022-12-26T15:54:49.202Z,9.79
2022-12-26T16:00:09.742Z,9.70
2022-12-26T16:05:38.075Z,9.69
2022-12-26T16:10:40.318Z,9.60
2022-12-26T16:15:44.969Z,9.36
2022-12-26T16:21:10.001Z,9.14
2022-12-26T16:26:18.571Z,8.84
2022-12-26T16:31:23.357Z,8.81
2022-12-26T16:36:31.888Z,8.79
2022-12-26T16:41:38.257Z,8.68
2022-12-26T16:46:40.676Z,8.57
2022-12-26T16:51:47.749Z,8.42
2022-12-26T16:56:51.918Z,8.27
2022-12-26T17:01:58.171Z,8.30
2022-12-26T17:07:06.308Z,8.15
2022-12-26T17:12:19.042Z,8.24
2022-12-26T17:17:31.008Z,8.16
2022-12-26T17:22:35.368Z,8.21
2022-12-26T17:27:37.426Z,8.04
2022-12-26T17:32:42.720Z,8.12
2022-12-26T17:37:50.077Z,8.27
2022-12-26T17:42:54.095Z,8.38
2022-12-26T17:47:57.151Z,8.52
2022-12-26T17:53:05.294Z,8.53
2022-12-26T17:58:11.765Z,8.46
2022-12-26T18:03:13.919Z,8.48
2022-12-26T18:08:27.465Z,8.56
2022-12-26T18:13:29.529Z,8.45
2022-12-26T18:18:34.934Z,8.53
2022-12-26T18:23:39.019Z,8.73
2022-12-26T18:28:41.008Z,8.88
2022-12-26T18:33:43.033Z,8.83
2022-12-26T18:38:46.403Z,8.76
2022-12-26T18:43:48.405Z,9.01
2022-12-26T18:48:53.840Z,9.08
2022-12-26T18:53:57.257Z,8.88
2022-12-26T18:58:59.304Z,8.87
2022-12-26T19:04:01.400Z,8.71
2022-12-26T19:09:05.376Z,8.70
2022-12-26T19:14:08.688Z,8.59
2022-12-26T19:19:10.629Z,8.63
2022-12-26T19:24:15.112Z,8.57
2022-12-26T19:29:17.150Z,8.70
2022-12-26T19:34:19.141Z,8.93
2022-12-26T19:39:22.663Z,8.99
2022-12-26T19:44:24.770Z,9.00
2022-12-26T19:49:33.463Z,9.14
2022-12-26T19:54:37.690Z,9.34
2022-12-26T19:59:39.723Z,9.38
2022-12-26T20:04:41.800Z,9.27
2022-12-26T20:09:45.168Z,9.25
2022-12-26T20:14:47.304Z,9.19
2022-12-26T20:19:50.179Z,9.24
2022-12-26T20:24:55.684Z,9.19
2022-12-26T20:29:57.761Z,9.16
2022-12-26T20:34:59.904Z,9.10
2022-12-26T20:40:03.803Z,9.11
2022-12-26T20:45:07.077Z,9.08
2022-12-26T20:50:09.848Z,8.93
2022-12-26T20:55:13.816Z,9.10
2022-12-26T21:00:18.709Z,9.18
2022-12-26T21:05:20.820Z,9.07
2022-12-26T21:10:24.307Z,9.12
2022-12-26T21:15:26.322Z,8.99
2022-12-26T21:20:28.452Z,8.97
2022-12-26T21:25:33.193Z,8.88
2022-12-26T21:30:35.226Z,8.92
2022-12-26T21:35:37.408Z,8.78
2022-12-26T21:40:43.158Z,8.69
2022-12-26T21:45:45.244Z,8.62
2022-12-26T21:50:47.217Z,8.71
2022-12-26T21:55:50.507Z,8.67
2022-12-26T22:00:52.453Z,8.62
2022-12-26T22:05:54.726Z,8.64
2022-12-26T22:11:16.596Z,8.57
2022-12-26T22:16:19.832Z,8.61
2022-12-26T22:21:22.244Z,8.56
2022-12-26T22:26:26.346Z,8.60
2022-12-26T22:31:31.544Z,8.69
2022-12-26T22:36:34.036Z,8.62
2022-12-26T22:41:37.995Z,8.62
2022-12-26T22:46:40.317Z,8.65
2022-12-26T22:51:42.383Z,8.73
2022-12-26T22:56:45.711Z,8.62
2022-12-26T23:01:47.729Z,8.43
2022-12-26T23:06:50.163Z,8.56
2022-12-26T23:12:12.672Z,8.51
2022-12-26T23:17:37.206Z,8.56
2022-12-26T23:22:39.655Z,8.61
2022-12-26T23:28:01.701Z,8.69
2022-12-26T23:33:03.810Z,8.73
2022-12-26T23:38:05.820Z,8.73
2022-12-26T23:43:09.171Z,8.54
2022-12-26T23:48:11.885Z,8.70
2022-12-26T23:53:13.849Z,8.76
2022-12-26T23:58:17.228Z,8.86
